createdAt,value
2019-05-02T00:00:02.600Z,50.27
2019-05-02T00:01:02.786Z,45.60
2019-05-02T00:02:03.195Z,46.73
2019-05-02T00:03:04.437Z,48.98
2019-05-02T00:04:04.342Z,58.65
2019-05-02T00:05:04.189Z,45.12
2019-05-02T00:06:07.408Z,48.98
2019-05-02T00:07:04.936Z,45.44
2019-05-02T00:08:04.076Z,54.30
2019-05-02T00:09:09.224Z,74.60
2019-05-02T00:10:05.408Z,46.73
2019-05-02T00:11:04.553Z,51.88
2019-05-02T00:12:04.716Z,73.15
2019-05-02T00:13:04.869Z,47.05
2019-05-02T00:14:05.055Z,44.96
2019-05-02T00:15:05.173Z,45.76
2019-05-02T00:16:09.227Z,45.12
2019-05-02T00:17:07.517Z,45.60
2019-05-02T00:18:05.765Z,46.41
2019-05-02T00:19:09.130Z,47.05
2019-05-02T00:20:08.131Z,46.57
2019-05-02T00:21:06.342Z,44.79
2019-05-02T00:22:06.475Z,45.44
2019-05-02T00:23:06.736Z,50.76
2019-05-02T00:24:06.878Z,47.21
2019-05-02T00:25:11.181Z,49.15
2019-05-02T00:26:08.302Z,47.05
2019-05-02T00:27:07.393Z,47.70
2019-05-02T00:28:07.807Z,45.76
2019-05-02T00:29:08.720Z,51.72
2019-05-02T00:30:07.885Z,45.12
2019-05-02T00:31:11.638Z,46.25
2019-05-02T00:32:09.180Z,59.94
2019-05-02T00:33:10.485Z,45.92
2019-05-02T00:34:08.454Z,49.47
2019-05-02T00:35:09.180Z,67.19
2019-05-02T00:36:08.832Z,46.41
2019-05-02T00:37:09.203Z,51.40
2019-05-02T00:38:09.225Z,62.20
2019-05-02T00:39:13.685Z,51.88
2019-05-02T00:40:11.593Z,45.76
2019-05-02T00:41:09.770Z,45.76
2019-05-02T00:42:12.752Z,46.08
2019-05-02T00:43:11.168Z,45.44
2019-05-02T00:44:11.105Z,46.57
2019-05-02T00:45:14.091Z,53.98
2019-05-02T00:46:11.587Z,58.01
2019-05-02T00:47:11.982Z,44.96
2019-05-02T00:48:12.680Z,45.12
2019-05-02T00:49:11.074Z,47.05
2019-05-02T00:50:12.686Z,48.82
2019-05-02T00:51:12.385Z,47.86
2019-05-02T00:52:11.548Z,49.31
2019-05-02T00:53:12.280Z,47.53
2019-05-02T00:54:13.017Z,45.28
2019-05-02T00:55:12.152Z,46.57
2019-05-02T00:56:13.333Z,45.44
2019-05-02T00:57:14.871Z,44.79
2019-05-02T00:58:14.617Z,44.96
2019-05-02T00:59:12.743Z,45.28
2019-05-02T01:00:13.384Z,45.44
2019-05-02T01:01:14.686Z,50.60
2019-05-02T01:02:13.692Z,61.71
2019-05-02T01:03:16.266Z,49.31
2019-05-02T01:04:14.648Z,47.21
2019-05-02T01:05:14.677Z,46.57
2019-05-02T01:06:15.410Z,46.08
2019-05-02T01:07:15.195Z,45.12
2019-05-02T01:08:14.326Z,46.08
2019-05-02T01:09:14.698Z,47.05
2019-05-02T01:10:17.217Z,45.76
2019-05-02T01:11:17.687Z,45.92
2019-05-02T01:12:25.865Z,45.92
2019-05-02T01:13:19.199Z,46.57
2019-05-02T01:14:17.199Z,47.05
2019-05-02T01:15:15.538Z,50.27
2019-05-02T01:16:19.191Z,47.37
2019-05-02T01:17:15.827Z,57.36
2019-05-02T01:18:16.024Z,45.92
2019-05-02T01:19:17.274Z,46.57
2019-05-02T01:20:16.297Z,45.60
2019-05-02T01:21:16.476Z,48.34
2019-05-02T01:22:17.305Z,45.44
2019-05-02T01:23:16.927Z,48.66
2019-05-02T01:24:17.142Z,45.92
2019-05-02T01:25:17.354Z,46.57
2019-05-02T01:26:17.530Z,47.53
2019-05-02T01:27:17.713Z,45.28
2019-05-02T01:28:18.873Z,44.63
2019-05-02T01:29:19.696Z,46.41
2019-05-02T01:30:18.318Z,53.98
2019-05-02T01:31:20.218Z,46.73
2019-05-02T01:32:19.184Z,47.53
2019-05-02T01:33:18.953Z,48.18
2019-05-02T01:34:19.355Z,47.05
2019-05-02T01:35:20.337Z,46.25
2019-05-02T01:36:19.468Z,46.57
2019-05-02T01:37:21.143Z,47.53
2019-05-02T01:38:20.774Z,45.76
2019-05-02T01:39:20.934Z,45.92
2019-05-02T01:40:20.084Z,47.70
2019-05-02T01:41:24.118Z,48.50
2019-05-02T01:42:21.361Z,46.89
2019-05-02T01:43:24.110Z,51.40
2019-05-02T01:44:20.849Z,48.02
2019-05-02T01:45:21.203Z,48.98
2019-05-02T01:46:24.062Z,47.21
2019-05-02T01:47:22.403Z,54.46
2019-05-02T01:48:22.199Z,49.31
2019-05-02T01:49:23.217Z,75.57
2019-05-02T01:50:22.038Z,48.82
2019-05-02T01:51:22.193Z,45.28
2019-05-02T01:52:23.773Z,45.60
2019-05-02T01:53:23.578Z,45.60
2019-05-02T01:54:22.708Z,45.12
2019-05-02T01:55:22.894Z,46.25
2019-05-02T01:56:23.041Z,48.02
2019-05-02T01:57:23.187Z,46.08
2019-05-02T01:58:23.349Z,52.21
2019-05-02T01:59:23.518Z,47.86
2019-05-02T02:00:23.718Z,48.34
2019-05-02T02:01:24.692Z,47.86
2019-05-02T02:02:28.130Z,47.53
2019-05-02T02:03:25.217Z,46.41
2019-05-02T02:04:24.347Z,45.92
2019-05-02T02:05:27.641Z,49.47
2019-05-02T02:06:26.697Z,48.82
2019-05-02T02:07:25.691Z,49.63
2019-05-02T02:08:27.373Z,48.34
2019-05-02T02:09:27.170Z,49.63
2019-05-02T02:10:25.391Z,49.47
2019-05-02T02:11:28.484Z,52.85
2019-05-02T02:12:27.678Z,62.04
2019-05-02T02:13:25.898Z,51.56
2019-05-02T02:14:26.033Z,46.57
2019-05-02T02:15:29.137Z,46.41
2019-05-02T02:16:27.396Z,46.73
2019-05-02T02:17:26.553Z,46.41
2019-05-02T02:18:27.461Z,47.21
2019-05-02T02:19:27.932Z,49.47
2019-05-02T02:20:27.168Z,51.56
2019-05-02T02:21:27.782Z,83.95
2019-05-02T02:22:28.450Z,48.02
2019-05-02T02:23:27.551Z,47.86
2019-05-02T02:24:27.707Z,51.88
2019-05-02T02:25:32.257Z,65.74
2019-05-02T02:26:29.112Z,62.36
2019-05-02T02:27:28.239Z,51.56
2019-05-02T02:28:32.058Z,53.50
2019-05-02T02:29:29.513Z,48.34
2019-05-02T02:30:28.737Z,48.50
2019-05-02T02:31:28.876Z,49.31
2019-05-02T02:32:29.205Z,47.86
2019-05-02T02:33:29.196Z,73.64
2019-05-02T02:34:32.067Z,48.98
2019-05-02T02:35:30.580Z,50.11
2019-05-02T02:36:34.250Z,61.23
2019-05-02T02:37:31.973Z,48.82
2019-05-02T02:38:33.643Z,49.31
2019-05-02T02:39:33.202Z,49.79
2019-05-02T02:40:33.777Z,50.27
2019-05-02T02:41:33.199Z,59.94
2019-05-02T02:42:34.111Z,49.47
2019-05-02T02:43:34.691Z,49.95
2019-05-02T02:44:33.929Z,79.28
2019-05-02T02:45:33.470Z,83.14
2019-05-02T02:46:37.975Z,92.33
2019-05-02T02:47:33.837Z,94.10
2019-05-02T02:48:33.837Z,92.33
2019-05-02T02:49:34.173Z,88.78
2019-05-02T02:50:36.840Z,95.87
2019-05-02T02:51:34.560Z,92.33
2019-05-02T02:52:37.690Z,92.01
2019-05-02T02:53:33.884Z,91.36
2019-05-02T02:54:36.705Z,95.07
2019-05-02T02:55:35.128Z,94.42
2019-05-02T02:56:34.322Z,93.46
2019-05-02T02:57:35.503Z,94.10
2019-05-02T02:58:43.986Z,94.58
2019-05-02T02:59:35.845Z,97.32
2019-05-02T03:00:34.057Z,103.61
2019-05-02T03:01:34.241Z,104.90
2019-05-02T03:02:34.394Z,103.45
2019-05-02T03:03:35.542Z,103.12
2019-05-02T03:04:35.722Z,102.96
2019-05-02T03:05:35.706Z,105.54
2019-05-02T03:06:38.388Z,102.16
2019-05-02T03:07:37.289Z,103.77
2019-05-02T03:08:45.229Z,102.32
2019-05-02T03:09:38.205Z,101.67
2019-05-02T03:10:39.966Z,101.67
2019-05-02T03:11:37.049Z,103.29
2019-05-02T03:12:41.577Z,102.64
2019-05-02T03:13:51.103Z,104.25
2019-05-02T03:14:40.838Z,102.64
2019-05-02T03:15:38.736Z,102.96
2019-05-02T03:16:46.145Z,104.74
2019-05-02T03:17:39.171Z,102.64
2019-05-02T03:18:40.558Z,104.09
2019-05-02T03:19:39.527Z,83.95
2019-05-02T03:20:40.615Z,83.95
2019-05-02T03:21:39.709Z,74.77
2019-05-02T03:22:41.908Z,80.57
2019-05-02T03:23:40.252Z,63.33
2019-05-02T03:24:43.913Z,71.54
2019-05-02T03:25:50.872Z,80.08
2019-05-02T03:26:40.745Z,81.53
2019-05-02T03:27:40.422Z,83.79
2019-05-02T03:28:40.248Z,82.98
2019-05-02T03:29:43.686Z,82.82
2019-05-02T03:30:40.570Z,77.67
2019-05-02T03:31:39.717Z,62.36
2019-05-02T03:32:39.877Z,60.75
2019-05-02T03:33:55.154Z,62.04
2019-05-02T03:34:48.146Z,82.34
2019-05-02T03:35:48.438Z,60.10
2019-05-02T03:36:42.608Z,74.12
2019-05-02T03:37:45.012Z,60.91
2019-05-02T03:38:43.218Z,62.84
2019-05-02T03:39:41.084Z,68.64
2019-05-02T03:40:41.466Z,75.09
2019-05-02T03:41:42.363Z,60.91
2019-05-02T03:42:44.844Z,61.07
2019-05-02T03:43:43.833Z,58.97
2019-05-02T03:44:41.943Z,66.23
2019-05-02T03:45:43.158Z,79.12
2019-05-02T03:46:43.278Z,79.60
2019-05-02T03:47:43.988Z,64.45
2019-05-02T03:48:43.691Z,60.91
2019-05-02T03:49:48.983Z,57.04
2019-05-02T03:50:44.989Z,62.04
2019-05-02T03:51:43.196Z,71.54
2019-05-02T03:52:46.307Z,62.20
2019-05-02T03:53:44.540Z,53.33
2019-05-02T03:54:49.967Z,62.20
2019-05-02T03:55:45.949Z,55.91
2019-05-02T03:56:51.277Z,61.55
2019-05-02T03:57:45.159Z,59.30
2019-05-02T03:58:48.528Z,61.55
2019-05-02T03:59:46.567Z,60.42
2019-05-02T04:00:45.235Z,64.29
2019-05-02T04:01:44.854Z,60.59
2019-05-02T04:02:45.021Z,57.36
2019-05-02T04:03:45.190Z,51.24
2019-05-02T04:04:45.400Z,54.79
2019-05-02T04:05:45.598Z,59.62
2019-05-02T04:06:45.817Z,58.49
2019-05-02T04:07:46.031Z,66.39
2019-05-02T04:08:46.128Z,77.18
2019-05-02T04:09:46.329Z,57.04
2019-05-02T04:10:52.946Z,55.91
2019-05-02T04:11:47.745Z,61.87
2019-05-02T04:12:53.232Z,53.82
2019-05-02T04:13:47.001Z,62.36
2019-05-02T04:14:47.174Z,62.68
2019-05-02T04:15:47.336Z,61.71
2019-05-02T04:16:48.623Z,78.15
2019-05-02T04:17:49.709Z,60.26
2019-05-02T04:18:54.502Z,62.04
2019-05-02T04:19:50.029Z,62.20
2019-05-02T04:20:49.604Z,68.80
2019-05-02T04:21:52.652Z,60.59
2019-05-02T04:22:50.919Z,57.69
2019-05-02T04:23:48.788Z,62.68
2019-05-02T04:24:54.540Z,66.06
2019-05-02T04:25:51.169Z,61.23
2019-05-02T04:26:54.027Z,74.28
2019-05-02T04:27:52.203Z,58.65
2019-05-02T04:28:51.608Z,60.75
2019-05-02T04:29:51.001Z,57.85
2019-05-02T04:30:51.209Z,64.29
2019-05-02T04:31:52.250Z,55.91
2019-05-02T04:32:55.792Z,61.07
2019-05-02T04:33:51.832Z,58.49
2019-05-02T04:34:55.622Z,60.75
2019-05-02T04:35:53.186Z,74.77
2019-05-02T04:36:59.689Z,63.97
2019-05-02T04:37:53.541Z,58.17
2019-05-02T04:38:52.629Z,69.29
2019-05-02T04:39:57.796Z,75.57
2019-05-02T04:40:54.129Z,58.65
2019-05-02T04:41:52.364Z,59.14
2019-05-02T04:43:05.468Z,61.23
2019-05-02T04:43:57.525Z,69.77
2019-05-02T04:45:14.025Z,59.94
2019-05-02T04:45:57.441Z,57.85
2019-05-02T04:47:02.621Z,60.91
2019-05-02T04:48:01.010Z,58.65
2019-05-02T04:48:58.772Z,59.78
2019-05-02T04:49:53.777Z,62.68
2019-05-02T04:50:59.419Z,59.94
2019-05-02T04:52:01.906Z,70.09
2019-05-02T04:52:59.259Z,63.00
2019-05-02T04:53:54.450Z,62.36
2019-05-02T04:55:08.341Z,66.23
2019-05-02T04:56:01.829Z,60.75
2019-05-02T04:56:59.073Z,67.35
2019-05-02T04:57:58.761Z,62.20
2019-05-02T04:59:01.181Z,61.07
2019-05-02T05:00:05.913Z,76.05
2019-05-02T05:01:01.572Z,59.78
2019-05-02T05:02:00.581Z,53.98
2019-05-02T05:02:58.037Z,69.45
2019-05-02T05:04:02.811Z,61.39
2019-05-02T05:04:58.708Z,73.32
2019-05-02T05:06:06.820Z,71.06
2019-05-02T05:07:01.122Z,62.04
2019-05-02T05:07:58.733Z,60.75
2019-05-02T05:08:58.461Z,60.26
2019-05-02T05:10:03.034Z,69.77
2019-05-02T05:11:00.243Z,62.68
2019-05-02T05:11:59.067Z,77.50
2019-05-02T05:12:59.005Z,63.00
2019-05-02T05:14:00.313Z,67.84
2019-05-02T05:15:00.469Z,70.09
2019-05-02T05:16:02.984Z,61.39
2019-05-02T05:16:59.933Z,61.71
2019-05-02T05:17:59.036Z,74.60
2019-05-02T05:19:00.074Z,65.42
2019-05-02T05:20:05.232Z,63.16
2019-05-02T05:21:00.527Z,63.16
2019-05-02T05:22:04.737Z,75.41
2019-05-02T05:23:01.986Z,64.61
2019-05-02T05:24:01.469Z,67.03
2019-05-02T05:25:01.345Z,71.06
2019-05-02T05:26:03.687Z,73.32
2019-05-02T05:27:01.801Z,71.06
2019-05-02T05:28:05.950Z,71.87
2019-05-02T05:29:02.162Z,60.42
2019-05-02T05:30:08.484Z,57.20
2019-05-02T05:31:03.416Z,73.64
2019-05-02T05:32:05.613Z,76.38
2019-05-02T05:33:03.733Z,70.58
2019-05-02T05:34:01.947Z,68.48
2019-05-02T05:35:03.398Z,68.32
2019-05-02T05:36:05.220Z,76.54
2019-05-02T05:37:03.776Z,71.87
2019-05-02T05:38:04.714Z,73.32
2019-05-02T05:39:07.261Z,68.32
2019-05-02T05:40:05.230Z,77.02
2019-05-02T05:41:08.173Z,64.61
2019-05-02T05:42:04.740Z,67.84
2019-05-02T05:43:12.120Z,70.09
2019-05-02T05:44:07.830Z,72.83
2019-05-02T05:45:08.717Z,67.51
2019-05-02T05:46:10.710Z,62.36
2019-05-02T05:47:07.369Z,64.13
2019-05-02T05:48:04.737Z,71.38
2019-05-02T05:49:04.409Z,76.05
2019-05-02T05:50:05.209Z,76.86
2019-05-02T05:51:07.260Z,61.71
2019-05-02T05:52:04.912Z,73.64
2019-05-02T05:53:05.128Z,76.38
2019-05-02T05:54:05.308Z,72.03
2019-05-02T05:55:07.666Z,63.49
2019-05-02T05:56:07.795Z,73.48
2019-05-02T05:57:07.587Z,68.80
2019-05-02T05:58:13.169Z,74.77
2019-05-02T05:59:08.285Z,67.19
2019-05-02T06:00:11.848Z,74.60
2019-05-02T06:01:10.281Z,61.39
2019-05-02T06:02:12.670Z,71.70
2019-05-02T06:03:13.928Z,59.78
2019-05-02T06:04:09.257Z,63.16
2019-05-02T06:05:07.957Z,76.70
2019-05-02T06:06:10.260Z,67.03
2019-05-02T06:07:08.890Z,62.68
2019-05-02T06:08:08.722Z,70.42
2019-05-02T06:09:08.208Z,68.32
2019-05-02T06:10:09.870Z,64.78
2019-05-02T06:11:08.485Z,68.48
2019-05-02T06:12:08.635Z,60.91
2019-05-02T06:13:10.971Z,62.04
2019-05-02T06:14:09.962Z,62.84
2019-05-02T06:15:09.222Z,60.42
2019-05-02T06:16:10.420Z,65.74
2019-05-02T06:17:10.525Z,71.06
2019-05-02T06:18:09.705Z,73.48
2019-05-02T06:19:13.032Z,58.97
2019-05-02T06:20:10.982Z,70.90
2019-05-02T06:21:10.778Z,69.93
2019-05-02T06:22:16.053Z,59.94
2019-05-02T06:23:11.454Z,63.97
2019-05-02T06:24:10.998Z,76.22
2019-05-02T06:25:11.730Z,67.35
2019-05-02T06:26:13.655Z,62.68
2019-05-02T06:27:12.090Z,67.35
2019-05-02T06:28:11.196Z,64.78
2019-05-02T06:29:13.094Z,65.10
2019-05-02T06:30:13.592Z,63.49
2019-05-02T06:31:11.804Z,65.74
2019-05-02T06:32:14.034Z,64.94
2019-05-02T06:33:14.172Z,73.64
2019-05-02T06:34:12.407Z,72.35
2019-05-02T06:35:17.116Z,67.19
2019-05-02T06:36:13.782Z,66.71
2019-05-02T06:37:13.581Z,73.32
2019-05-02T06:38:14.061Z,68.32
2019-05-02T06:39:13.282Z,59.62
2019-05-02T06:40:13.409Z,61.39
2019-05-02T06:41:16.095Z,61.39
2019-05-02T06:42:15.805Z,69.61
2019-05-02T06:43:13.894Z,61.87
2019-05-02T06:44:18.461Z,69.45
2019-05-02T06:45:15.262Z,64.78
2019-05-02T06:46:16.588Z,61.23
2019-05-02T06:47:16.588Z,60.42
2019-05-02T06:48:17.661Z,67.35
2019-05-02T06:49:15.956Z,68.80
2019-05-02T06:50:15.172Z,70.58
2019-05-02T06:51:19.599Z,63.97
2019-05-02T06:52:17.541Z,70.25
2019-05-02T06:53:16.228Z,65.90
2019-05-02T06:54:17.941Z,69.29
2019-05-02T06:55:18.192Z,62.84
2019-05-02T06:56:16.458Z,61.71
2019-05-02T06:57:19.155Z,76.54
2019-05-02T06:58:18.851Z,62.20
2019-05-02T06:59:18.555Z,60.75
2019-05-02T07:00:18.296Z,61.39
2019-05-02T07:01:21.323Z,63.81
2019-05-02T07:02:19.231Z,71.54
2019-05-02T07:03:17.716Z,61.23
2019-05-02T07:04:22.911Z,65.10
2019-05-02T07:05:18.990Z,61.71
2019-05-02T07:06:18.420Z,63.16
2019-05-02T07:07:18.440Z,59.46
2019-05-02T07:08:18.560Z,69.13
2019-05-02T07:09:18.733Z,60.42
2019-05-02T07:10:20.186Z,72.35
2019-05-02T07:11:21.095Z,58.01
2019-05-02T07:12:19.320Z,73.64
2019-05-02T07:13:19.474Z,62.04
2019-05-02T07:14:23.682Z,73.15
2019-05-02T07:15:21.783Z,68.48
2019-05-02T07:16:37.178Z,65.26
2019-05-02T07:17:26.651Z,62.04
2019-05-02T07:18:21.329Z,63.16
2019-05-02T07:19:21.589Z,60.59
2019-05-02T07:20:22.664Z,67.84
2019-05-02T07:21:23.620Z,72.03
2019-05-02T07:22:22.099Z,61.23
2019-05-02T07:23:21.216Z,58.01
2019-05-02T07:24:25.305Z,68.48
2019-05-02T07:25:23.577Z,73.32
2019-05-02T07:26:23.317Z,63.49
2019-05-02T07:27:21.982Z,58.01
2019-05-02T07:28:23.990Z,64.78
2019-05-02T07:29:23.385Z,60.42
2019-05-02T07:30:22.651Z,70.58
2019-05-02T07:31:22.805Z,62.52
2019-05-02T07:32:24.680Z,69.61
2019-05-02T07:33:24.745Z,65.26
2019-05-02T07:34:24.231Z,56.56
2019-05-02T07:35:24.429Z,60.75
2019-05-02T07:36:24.564Z,63.97
2019-05-02T07:37:23.787Z,68.80
2019-05-02T07:38:25.710Z,68.00
2019-05-02T07:39:25.056Z,61.87
2019-05-02T07:40:24.298Z,65.90
2019-05-02T07:41:28.958Z,74.93
2019-05-02T07:42:25.606Z,77.02
2019-05-02T07:43:24.738Z,66.23
2019-05-02T07:44:27.197Z,79.12
2019-05-02T07:45:27.743Z,71.87
2019-05-02T07:46:25.348Z,66.06
2019-05-02T07:47:28.564Z,73.32
2019-05-02T07:48:25.693Z,68.16
2019-05-02T07:49:26.795Z,66.87
2019-05-02T07:50:28.010Z,67.51
2019-05-02T07:51:26.190Z,77.18
2019-05-02T07:52:28.925Z,76.05
2019-05-02T07:53:27.482Z,59.78
2019-05-02T07:54:26.794Z,68.80
2019-05-02T07:55:30.513Z,60.59
2019-05-02T07:56:26.967Z,62.84
2019-05-02T07:57:30.512Z,65.74
2019-05-02T07:58:29.290Z,69.45
2019-05-02T07:59:27.383Z,71.06
2019-05-02T08:00:27.535Z,62.04
2019-05-02T08:01:27.676Z,61.87
2019-05-02T08:02:27.821Z,64.61
2019-05-02T08:03:29.461Z,70.25
2019-05-02T08:04:30.101Z,64.94
2019-05-02T08:05:28.297Z,68.00
2019-05-02T08:06:35.018Z,60.75
2019-05-02T08:07:34.161Z,71.54
2019-05-02T08:08:31.786Z,60.26
2019-05-02T08:09:29.007Z,78.31
2019-05-02T08:10:29.169Z,64.29
2019-05-02T08:11:32.195Z,69.77
2019-05-02T08:12:31.466Z,58.49
2019-05-02T08:13:31.453Z,63.49
2019-05-02T08:14:34.634Z,57.85
2019-05-02T08:15:32.745Z,59.14
2019-05-02T08:16:30.083Z,68.00
2019-05-02T08:17:30.242Z,67.03
2019-05-02T08:18:31.627Z,59.78
2019-05-02T08:19:30.636Z,68.16
2019-05-02T08:20:30.771Z,63.33
2019-05-02T08:21:32.501Z,64.78
2019-05-02T08:22:32.743Z,66.39
2019-05-02T08:23:31.378Z,69.93
2019-05-02T08:24:32.979Z,75.09
2019-05-02T08:25:33.639Z,78.96
2019-05-02T08:26:31.888Z,73.15
2019-05-02T08:27:34.553Z,67.03
2019-05-02T08:28:33.315Z,65.74
2019-05-02T08:29:32.432Z,76.54
2019-05-02T08:30:35.361Z,69.29
2019-05-02T08:31:34.824Z,61.71
2019-05-02T08:32:33.047Z,59.30
2019-05-02T08:33:34.873Z,60.59
2019-05-02T08:34:34.325Z,60.59
2019-05-02T08:35:33.542Z,63.00
2019-05-02T08:36:33.696Z,67.19
2019-05-02T08:37:35.303Z,64.29
2019-05-02T08:38:36.065Z,59.94
2019-05-02T08:39:35.222Z,76.70
2019-05-02T08:40:34.504Z,65.58
2019-05-02T08:41:34.634Z,63.00
2019-05-02T08:42:34.809Z,80.08
2019-05-02T08:43:34.973Z,89.43
2019-05-02T08:44:35.753Z,60.10
2019-05-02T08:45:38.142Z,68.16
2019-05-02T08:46:36.497Z,74.28
2019-05-02T08:47:35.597Z,67.03
2019-05-02T08:48:36.453Z,59.62
2019-05-02T08:49:37.979Z,60.42
2019-05-02T08:50:36.239Z,63.81
2019-05-02T08:51:36.395Z,61.39
2019-05-02T08:52:36.917Z,58.49
2019-05-02T08:53:39.275Z,71.70
2019-05-02T08:54:36.874Z,61.71
2019-05-02T08:55:41.384Z,67.84
2019-05-02T08:56:38.195Z,71.70
2019-05-02T08:57:37.432Z,73.80
2019-05-02T08:58:37.624Z,67.84
2019-05-02T08:59:37.791Z,73.15
2019-05-02T09:00:39.536Z,73.15
2019-05-02T09:01:38.204Z,63.16
2019-05-02T09:02:41.652Z,69.29
2019-05-02T09:03:54.613Z,59.62
2019-05-02T09:04:40.825Z,68.80
2019-05-02T09:05:45.316Z,61.55
2019-05-02T09:06:41.103Z,61.71
2019-05-02T09:07:42.587Z,76.86
2019-05-02T09:08:40.436Z,64.29
2019-05-02T09:09:40.254Z,68.80
2019-05-02T09:10:42.113Z,74.12
2019-05-02T09:11:41.500Z,69.77
2019-05-02T09:12:45.322Z,63.81
2019-05-02T09:13:42.213Z,73.80
2019-05-02T09:14:42.539Z,77.67
2019-05-02T09:15:49.786Z,66.71
2019-05-02T09:16:42.879Z,67.35
2019-05-02T09:17:44.616Z,65.42
2019-05-02T09:18:50.685Z,58.49
2019-05-02T09:19:43.360Z,63.16
2019-05-02T09:20:47.076Z,71.06
2019-05-02T09:21:43.741Z,69.77
2019-05-02T09:22:46.489Z,71.87
2019-05-02T09:23:43.992Z,74.77
2019-05-02T09:24:44.462Z,71.22
2019-05-02T09:25:43.368Z,69.61
2019-05-02T09:26:42.687Z,73.32
2019-05-02T09:27:43.776Z,74.12
2019-05-02T09:28:43.278Z,63.33
2019-05-02T09:29:45.912Z,63.00
2019-05-02T09:30:46.682Z,62.04
2019-05-02T09:31:46.024Z,61.07
2019-05-02T09:32:44.737Z,60.75
2019-05-02T09:33:46.847Z,61.23
2019-05-02T09:34:45.127Z,64.94
2019-05-02T09:35:44.265Z,69.61
2019-05-02T09:36:44.446Z,71.06
2019-05-02T09:37:44.632Z,60.91
2019-05-02T09:38:48.658Z,60.26
2019-05-02T09:39:46.005Z,70.09
2019-05-02T09:40:47.199Z,60.26
2019-05-02T09:41:47.284Z,67.84
2019-05-02T09:42:47.570Z,73.15
2019-05-02T09:43:47.771Z,60.26
2019-05-02T09:44:47.947Z,61.87
2019-05-02T09:45:48.124Z,69.61
2019-05-02T09:46:47.483Z,69.45
2019-05-02T09:47:59.552Z,72.67
2019-05-02T09:48:48.828Z,65.90
2019-05-02T09:49:49.117Z,62.52
2019-05-02T09:50:48.756Z,60.75
2019-05-02T09:51:50.271Z,68.32
2019-05-02T09:52:52.241Z,68.80
2019-05-02T09:53:47.661Z,78.15
2019-05-02T09:54:47.880Z,73.32
2019-05-02T09:55:50.207Z,71.54
2019-05-02T09:56:52.280Z,63.81
2019-05-02T09:57:48.444Z,61.87
2019-05-02T09:58:49.490Z,69.13
2019-05-02T09:59:50.513Z,65.58
2019-05-02T10:00:52.329Z,66.06
2019-05-02T10:01:49.239Z,60.91
2019-05-02T10:02:49.402Z,64.94
2019-05-02T10:03:51.719Z,65.74
2019-05-02T10:04:49.818Z,65.90
2019-05-02T10:05:52.171Z,60.42
2019-05-02T10:06:52.296Z,85.40
2019-05-02T10:07:52.436Z,63.00
2019-05-02T10:08:51.972Z,77.67
2019-05-02T10:09:51.896Z,59.78
2019-05-02T10:10:52.251Z,60.10
2019-05-02T10:11:52.642Z,60.26
2019-05-02T10:12:52.368Z,64.78
2019-05-02T10:13:51.937Z,60.26
2019-05-02T10:14:52.793Z,73.80
2019-05-02T10:15:52.940Z,67.35
2019-05-02T10:16:52.955Z,70.09
2019-05-02T10:17:53.111Z,72.03
2019-05-02T10:18:52.488Z,78.96
2019-05-02T10:19:56.554Z,78.31
2019-05-02T10:20:53.575Z,65.26
2019-05-02T10:21:56.213Z,69.93
2019-05-02T10:22:54.753Z,65.26
2019-05-02T10:23:59.081Z,70.25
2019-05-02T10:24:55.269Z,81.53
2019-05-02T10:25:53.522Z,59.62
2019-05-02T10:26:55.225Z,76.54
2019-05-02T10:27:55.827Z,70.90
2019-05-02T10:28:54.063Z,68.64
2019-05-02T10:29:57.075Z,63.65
2019-05-02T10:30:56.695Z,64.61
2019-05-02T10:31:55.496Z,74.60
2019-05-02T10:32:57.253Z,67.35
2019-05-02T10:33:55.746Z,62.20
2019-05-02T10:34:56.767Z,64.94
2019-05-02T10:35:56.229Z,58.01
2019-05-02T10:36:58.861Z,64.78
2019-05-02T10:37:56.514Z,65.58
2019-05-02T10:38:59.245Z,68.32
2019-05-02T10:39:57.290Z,69.29
2019-05-02T10:41:01.620Z,57.36
2019-05-02T10:41:58.074Z,64.78
2019-05-02T10:42:57.780Z,65.10
2019-05-02T10:43:59.339Z,60.10
2019-05-02T10:44:57.748Z,69.45
2019-05-02T10:45:56.896Z,63.65
2019-05-02T10:46:57.057Z,57.52
2019-05-02T10:47:57.283Z,92.97
2019-05-02T10:48:57.336Z,68.32
2019-05-02T10:49:57.498Z,69.61
2019-05-02T10:50:57.648Z,70.25
2019-05-02T10:51:57.814Z,65.58
2019-05-02T10:52:58.022Z,66.87
2019-05-02T10:53:58.205Z,68.48
2019-05-02T10:54:58.382Z,62.04
2019-05-02T10:55:58.546Z,67.51
2019-05-02T10:56:58.727Z,61.39
2019-05-02T10:57:58.926Z,73.64
2019-05-02T10:58:59.094Z,75.25
2019-05-02T10:59:59.240Z,69.77
2019-05-02T11:00:59.391Z,73.64
2019-05-02T11:01:59.527Z,73.64
2019-05-02T11:02:59.721Z,64.78
2019-05-02T11:04:02.048Z,59.30
2019-05-02T11:04:59.993Z,69.77
2019-05-02T11:06:03.650Z,68.48
2019-05-02T11:07:02.698Z,69.45
2019-05-02T11:08:06.088Z,69.29
2019-05-02T11:09:03.115Z,63.33
2019-05-02T11:10:05.064Z,70.42
2019-05-02T11:11:05.662Z,66.71
2019-05-02T11:12:03.284Z,58.97
2019-05-02T11:13:01.920Z,62.20
2019-05-02T11:14:05.627Z,69.93
2019-05-02T11:15:02.913Z,71.38
2019-05-02T11:16:02.021Z,76.54
2019-05-02T11:17:02.778Z,65.10
2019-05-02T11:18:02.383Z,75.09
2019-05-02T11:19:03.533Z,65.42
2019-05-02T11:20:02.634Z,63.00
2019-05-02T11:21:06.761Z,74.12
2019-05-02T11:22:04.975Z,63.49
2019-05-02T11:23:03.160Z,63.33
2019-05-02T11:24:03.300Z,69.93
2019-05-02T11:25:03.510Z,65.42
2019-05-02T11:26:03.677Z,64.61
2019-05-02T11:27:03.802Z,67.35
2019-05-02T11:28:07.162Z,65.74
2019-05-02T11:29:05.130Z,58.97
2019-05-02T11:30:04.364Z,64.61
2019-05-02T11:31:06.879Z,62.52
2019-05-02T11:32:05.663Z,64.94
2019-05-02T11:33:04.821Z,64.78
2019-05-02T11:34:05.009Z,78.47
2019-05-02T11:35:05.207Z,68.48
2019-05-02T11:36:05.375Z,72.83
2019-05-02T11:37:06.536Z,68.16
2019-05-02T11:38:05.671Z,72.19
2019-05-02T11:39:15.143Z,68.16
2019-05-02T11:40:08.481Z,68.80
2019-05-02T11:41:06.171Z,76.86
2019-05-02T11:42:06.324Z,78.79
2019-05-02T11:43:06.900Z,70.42
2019-05-02T11:44:07.605Z,82.50
2019-05-02T11:45:06.762Z,65.42
2019-05-02T11:46:07.340Z,68.16
2019-05-02T11:47:08.121Z,69.45
2019-05-02T11:48:09.340Z,69.13
2019-05-02T11:49:08.397Z,64.13
2019-05-02T11:50:07.539Z,66.55
2019-05-02T11:51:12.725Z,74.28
2019-05-02T11:52:08.871Z,59.94
2019-05-02T11:53:22.286Z,72.51
2019-05-02T11:54:09.419Z,58.17
2019-05-02T11:55:09.287Z,57.52
2019-05-02T11:56:10.907Z,56.56
2019-05-02T11:57:08.659Z,66.39
2019-05-02T11:58:10.268Z,63.49
2019-05-02T11:59:08.916Z,65.42
2019-05-02T12:00:09.140Z,72.99
2019-05-02T12:01:09.346Z,65.90
2019-05-02T12:02:13.866Z,71.54
2019-05-02T12:03:12.551Z,65.74
2019-05-02T12:04:14.994Z,61.39
2019-05-02T12:05:12.774Z,71.87
2019-05-02T12:06:12.720Z,63.65
2019-05-02T12:07:12.708Z,69.93
2019-05-02T12:08:12.156Z,70.58
2019-05-02T12:09:13.334Z,64.94
2019-05-02T12:10:12.500Z,79.44
2019-05-02T12:11:14.012Z,76.22
2019-05-02T12:12:15.570Z,80.41
2019-05-02T12:13:15.977Z,69.29
2019-05-02T12:14:12.457Z,70.90
2019-05-02T12:15:12.063Z,63.33
2019-05-02T12:16:12.726Z,68.96
2019-05-02T12:17:12.213Z,66.39
2019-05-02T12:18:12.998Z,57.36
2019-05-02T12:19:14.982Z,69.77
2019-05-02T12:20:12.284Z,67.35
2019-05-02T12:21:13.290Z,57.20
2019-05-02T12:22:16.729Z,68.32
2019-05-02T12:23:13.800Z,60.91
2019-05-02T12:24:12.942Z,71.38
2019-05-02T12:25:13.796Z,68.00
2019-05-02T12:26:14.311Z,71.38
2019-05-02T12:27:13.450Z,70.25
2019-05-02T12:28:14.307Z,72.03
2019-05-02T12:29:13.814Z,72.51
2019-05-02T12:30:13.946Z,62.04
2019-05-02T12:31:16.676Z,63.65
2019-05-02T12:32:15.677Z,72.03
2019-05-02T12:33:16.302Z,66.23
2019-05-02T12:34:14.524Z,71.54
2019-05-02T12:35:14.690Z,70.58
2019-05-02T12:36:14.853Z,62.68
2019-05-02T12:37:15.030Z,70.25
2019-05-02T12:38:15.155Z,63.33
2019-05-02T12:39:15.289Z,71.06
2019-05-02T12:40:15.437Z,72.03
2019-05-02T12:41:22.388Z,60.91
2019-05-02T12:42:18.521Z,73.15
2019-05-02T12:43:16.811Z,74.77
2019-05-02T12:44:16.057Z,71.06
2019-05-02T12:45:16.821Z,71.70
2019-05-02T12:46:16.356Z,63.65
2019-05-02T12:47:17.336Z,71.38
2019-05-02T12:48:16.720Z,74.60
2019-05-02T12:49:25.259Z,76.05
2019-05-02T12:50:19.804Z,73.48
2019-05-02T12:51:17.286Z,70.58
2019-05-02T12:52:17.439Z,77.18
2019-05-02T12:53:17.605Z,73.48
2019-05-02T12:54:17.735Z,65.58